createdAt,value
2023-04-22T00:03:25.876Z,10.07
2023-04-22T00:08:06.021Z,9.73
2023-04-22T00:12:49.501Z,6.63
2023-04-22T00:17:29.423Z,8.68
2023-04-22T00:22:11.268Z,8.60
2023-04-22T00:26:51.221Z,8.90
2023-04-22T00:31:32.584Z,8.32
2023-04-22T00:36:12.502Z,8.50
2023-04-22T00:40:52.637Z,8.80
2023-04-22T00:45:32.288Z,9.05
2023-04-22T00:50:15.466Z,9.48
2023-04-22T00:54:54.683Z,8.50
2023-04-22T00:59:40.520Z,6.07
2023-04-22T01:04:23.374Z,8.70
2023-04-22T01:09:04.051Z,8.37
2023-04-22T01:13:42.503Z,8.10
2023-04-22T01:18:21.948Z,9.88
2023-04-22T01:23:07.004Z,7.87
2023-04-22T01:27:50.353Z,8.00
2023-04-22T01:32:31.065Z,8.95
2023-04-22T01:37:09.463Z,8.32
2023-04-22T01:41:48.972Z,7.27
2023-04-22T01:46:29.510Z,8.52
2023-04-22T01:51:07.574Z,7.38
2023-04-22T01:55:48.424Z,7.63
2023-04-22T02:00:26.665Z,8.43
2023-04-22T02:05:12.812Z,8.38
2023-04-22T02:09:52.811Z,8.73
2023-04-22T02:14:31.529Z,7.78
2023-04-22T02:19:14.350Z,9.13
2023-04-22T02:23:55.210Z,8.98
2023-04-22T02:28:33.218Z,8.53
2023-04-22T02:33:13.527Z,9.07
2023-04-22T02:37:52.390Z,8.77
2023-04-22T02:42:36.512Z,8.63
2023-04-22T02:47:14.850Z,8.80
2023-04-22T02:51:54.133Z,8.98
2023-04-22T02:56:33.810Z,8.43
2023-04-22T03:01:14.907Z,9.68
2023-04-22T03:05:52.862Z,9.73
2023-04-22T03:10:32.549Z,8.82
2023-04-22T03:15:12.871Z,9.07
2023-04-22T03:19:52.883Z,8.82
2023-04-22T03:24:34.302Z,8.80
2023-04-22T03:29:16.806Z,8.83
2023-04-22T03:33:56.278Z,9.02
2023-04-22T03:38:40.564Z,9.30
2023-04-22T03:43:18.445Z,9.23
2023-04-22T03:48:07.518Z,9.18
2023-04-22T03:52:53.018Z,7.72
2023-04-22T03:57:33.851Z,9.05
2023-04-22T04:02:12.160Z,9.63
2023-04-22T04:06:51.662Z,9.60
2023-04-22T04:11:31.730Z,5.78
2023-04-22T04:16:12.154Z,8.53
2023-04-22T04:20:53.571Z,8.68
2023-04-22T04:25:37.943Z,8.65
2023-04-22T04:30:21.895Z,9.00
2023-04-22T04:35:06.839Z,8.85
2023-04-22T04:39:47.028Z,8.50
2023-04-22T04:44:27.546Z,8.88
2023-04-22T04:49:12.581Z,8.17
2023-04-22T04:54:08.664Z,8.18
2023-04-22T04:58:52.876Z,8.55
2023-04-22T05:03:36.013Z,7.67
2023-04-22T05:08:15.283Z,8.07
2023-04-22T05:12:59.831Z,7.95
2023-04-22T05:17:40.609Z,7.23
2023-04-22T05:22:19.922Z,8.10
2023-04-22T05:26:59.546Z,8.23
2023-04-22T05:31:40.471Z,8.23
2023-04-22T05:36:18.541Z,7.60
2023-04-22T05:40:58.171Z,8.43
2023-04-22T05:45:37.759Z,7.95
2023-04-22T05:50:23.421Z,7.63
2023-04-22T05:55:12.151Z,8.07
2023-04-22T05:59:51.713Z,8.05
2023-04-22T06:04:33.092Z,8.00
2023-04-22T06:09:15.337Z,7.82
2023-04-22T06:13:54.027Z,7.88
2023-04-22T06:18:34.256Z,7.90
2023-04-22T06:23:12.505Z,6.67
2023-04-22T06:27:53.975Z,7.70
2023-04-22T06:32:34.870Z,8.20
2023-04-22T06:37:14.258Z,7.30
2023-04-22T06:41:54.156Z,7.03
2023-04-22T06:46:50.181Z,7.47
2023-04-22T06:51:52.959Z,7.03
2023-04-22T06:56:32.577Z,7.72
2023-04-22T07:01:12.286Z,6.70
2023-04-22T07:05:53.124Z,6.70
2023-04-22T07:10:31.309Z,5.93
2023-04-22T07:15:29.384Z,6.53
2023-04-22T07:20:09.796Z,5.88
2023-04-22T07:24:49.740Z,6.20
2023-04-22T07:29:27.873Z,5.65
2023-04-22T07:34:07.666Z,6.40
2023-04-22T07:38:50.108Z,5.60
2023-04-22T07:43:31.270Z,6.63
2023-04-22T07:48:09.353Z,5.70
2023-04-22T07:52:48.701Z,6.18
2023-04-22T07:57:28.284Z,5.70
2023-04-22T08:02:09.491Z,5.68
2023-04-22T08:06:47.510Z,5.20
2023-04-22T08:11:27.052Z,5.70
2023-04-22T08:16:07.996Z,5.18
2023-04-22T08:20:48.066Z,5.53
2023-04-22T08:25:27.267Z,5.40
2023-04-22T08:30:12.074Z,5.43
2023-04-22T08:34:52.046Z,4.15
2023-04-22T08:39:34.986Z,4.43
2023-04-22T08:44:13.319Z,5.00
2023-04-22T08:48:53.248Z,4.97
2023-04-22T08:53:32.776Z,4.60
2023-04-22T08:58:13.858Z,5.03
2023-04-22T09:02:53.357Z,4.53
2023-04-22T09:07:32.591Z,4.78
2023-04-22T09:12:10.575Z,5.20
2023-04-22T09:16:51.665Z,4.78
2023-04-22T09:21:30.122Z,4.63
2023-04-22T09:26:09.640Z,4.63
2023-04-22T09:30:48.837Z,4.47
2023-04-22T09:35:32.049Z,4.55
2023-04-22T09:40:16.315Z,4.60
2023-04-22T09:44:54.195Z,4.57
2023-04-22T09:49:39.217Z,4.50
2023-04-22T09:54:20.212Z,3.83
2023-04-22T09:58:58.380Z,5.27
2023-04-22T10:03:37.994Z,4.50
2023-04-22T10:08:18.600Z,4.88
2023-04-22T10:12:58.927Z,4.55
2023-04-22T10:17:40.474Z,3.70
2023-04-22T10:22:19.752Z,4.63
2023-04-22T10:27:00.218Z,4.63
2023-04-22T10:31:40.884Z,4.57
2023-04-22T10:36:22.007Z,4.15
2023-04-22T10:41:00.931Z,4.30
2023-04-22T10:45:40.190Z,4.57
2023-04-22T10:50:26.050Z,4.70
2023-04-22T10:55:06.229Z,5.00
2023-04-22T10:59:50.231Z,4.45
2023-04-22T11:04:30.901Z,4.33
2023-04-22T11:09:12.908Z,4.25
2023-04-22T11:13:53.672Z,3.63
2023-04-22T11:18:33.293Z,4.20
2023-04-22T11:23:12.355Z,3.90
2023-04-22T11:27:55.199Z,2.88
2023-04-22T11:32:34.313Z,3.70
2023-04-22T11:37:20.986Z,3.47
2023-04-22T11:41:59.495Z,3.55
2023-04-22T11:46:41.801Z,3.50
2023-04-22T11:51:26.370Z,3.07
2023-04-22T11:56:04.827Z,3.17
2023-04-22T12:00:49.123Z,3.67
2023-04-22T12:05:42.387Z,3.93
2023-04-22T12:10:24.947Z,2.95
2023-04-22T12:15:12.659Z,3.17
2023-04-22T12:19:56.641Z,3.40
2023-04-22T12:24:36.779Z,3.72
2023-04-22T12:29:14.990Z,3.50
2023-04-22T12:33:57.605Z,3.30
2023-04-22T12:38:38.572Z,3.03
2023-04-22T12:43:18.377Z,3.55
2023-04-22T12:47:56.896Z,2.53
2023-04-22T12:52:39.631Z,3.47
2023-04-22T12:57:21.119Z,2.65
2023-04-22T13:02:06.061Z,3.03
2023-04-22T13:06:46.146Z,2.00
2023-04-22T13:11:26.363Z,3.22
2023-04-22T13:16:06.359Z,2.80
2023-04-22T13:20:47.848Z,2.80
2023-04-22T13:25:28.144Z,2.00
2023-04-22T13:30:09.712Z,2.83
2023-04-22T13:34:48.395Z,2.80
2023-04-22T13:39:28.304Z,3.30
2023-04-22T13:44:06.484Z,3.10
2023-04-22T13:48:45.868Z,3.15
2023-04-22T13:53:25.485Z,3.13
2023-04-22T13:58:07.635Z,3.00
2023-04-22T14:02:47.899Z,3.30
2023-04-22T14:07:27.165Z,3.08
2023-04-22T14:12:08.248Z,2.97
2023-04-22T14:16:47.778Z,3.30
2023-04-22T14:21:29.605Z,2.80
2023-04-22T14:26:09.979Z,3.17
2023-04-22T14:30:48.350Z,3.38
2023-04-22T14:35:28.956Z,3.40
2023-04-22T14:40:08.673Z,2.70
2023-04-22T14:44:46.978Z,3.50
2023-04-22T14:49:26.267Z,2.90
2023-04-22T14:54:07.700Z,3.40
2023-04-22T14:58:45.378Z,3.20
2023-04-22T15:03:25.082Z,3.05
2023-04-22T15:08:04.506Z,3.20
2023-04-22T15:12:45.903Z,3.00
2023-04-22T15:17:23.918Z,3.22
2023-04-22T15:22:04.533Z,3.40
2023-04-22T15:26:42.864Z,3.47
2023-04-22T15:31:23.801Z,3.42
2023-04-22T15:36:04.226Z,3.20
2023-04-22T15:40:48.832Z,3.30
2023-04-22T15:45:27.430Z,2.93
2023-04-22T15:50:10.138Z,3.30
2023-04-22T15:54:49.911Z,3.60
2023-04-22T15:59:29.082Z,3.53
2023-04-22T16:04:09.197Z,3.67
2023-04-22T16:08:49.624Z,3.55
2023-04-22T16:13:27.801Z,3.60
2023-04-22T16:18:07.328Z,3.65
2023-04-22T16:22:47.044Z,3.60
2023-04-22T16:27:27.583Z,3.53
2023-04-22T16:32:06.470Z,3.17
2023-04-22T16:36:45.627Z,3.40
2023-04-22T16:41:24.912Z,3.83
2023-04-22T16:46:06.318Z,3.83
2023-04-22T16:50:44.028Z,3.85
2023-04-22T16:55:23.752Z,3.45
2023-04-22T17:00:05.857Z,3.90
2023-04-22T17:04:47.396Z,3.28
2023-04-22T17:09:25.410Z,4.40
2023-04-22T17:14:04.971Z,3.67
2023-04-22T17:18:44.883Z,4.40
2023-04-22T17:23:27.168Z,5.28
2023-04-22T17:28:11.322Z,5.20
2023-04-22T17:32:49.816Z,4.70
2023-04-22T17:37:28.798Z,5.00
2023-04-22T17:42:09.887Z,4.93
2023-04-22T17:46:48.075Z,4.67
2023-04-22T17:51:27.971Z,4.88
2023-04-22T17:56:07.441Z,4.97
2023-04-22T18:00:48.099Z,5.05
2023-04-22T18:05:27.100Z,5.20
2023-04-22T18:10:06.720Z,6.50
2023-04-22T18:14:45.601Z,5.00
2023-04-22T18:19:26.266Z,4.97
2023-04-22T18:24:04.661Z,5.18
2023-04-22T18:28:44.756Z,4.90
2023-04-22T18:33:23.604Z,5.70
2023-04-22T18:38:04.691Z,5.70
2023-04-22T18:42:45.042Z,5.75
2023-04-22T18:47:25.430Z,6.20
2023-04-22T18:52:05.133Z,6.60
2023-04-22T18:56:46.440Z,6.05
2023-04-22T19:01:24.112Z,11.23
2023-04-22T19:06:03.518Z,7.50
2023-04-22T19:10:43.372Z,6.63
2023-04-22T19:15:24.172Z,6.80
2023-04-22T19:20:02.501Z,6.70
2023-04-22T19:24:42.213Z,5.72
2023-04-22T19:29:21.405Z,7.10
2023-04-22T19:34:02.808Z,6.63
2023-04-22T19:38:40.975Z,7.43
2023-04-22T19:43:21.894Z,6.35
2023-04-22T19:48:00.201Z,7.05
2023-04-22T19:52:42.852Z,7.07
2023-04-22T19:57:25.079Z,7.97
2023-04-22T20:02:07.213Z,7.28
2023-04-22T20:06:47.397Z,7.90
2023-04-22T20:11:29.564Z,7.53
2023-04-22T20:16:10.701Z,7.80
2023-04-22T20:20:30.931Z,7.95
2023-04-22T20:24:55.212Z,8.07
2023-04-22T20:29:16.011Z,7.75
2023-04-22T20:33:35.715Z,7.22
2023-04-22T20:37:59.211Z,7.60
2023-04-22T20:42:18.337Z,8.23
2023-04-22T20:46:58.301Z,8.45
2023-04-22T20:51:38.335Z,7.70
2023-04-22T20:55:56.220Z,7.90
2023-04-22T21:00:16.065Z,7.63
2023-04-22T21:04:37.565Z,7.32
2023-04-22T21:08:57.789Z,7.00
2023-04-22T21:13:18.519Z,6.60
2023-04-22T21:17:38.652Z,7.00
2023-04-22T21:22:00.758Z,6.33
2023-04-22T21:26:19.597Z,6.32
2023-04-22T21:30:39.735Z,5.80
2023-04-22T21:34:57.804Z,6.40
2023-04-22T21:39:16.740Z,6.32
2023-04-22T21:43:36.291Z,7.05
2023-04-22T21:47:54.692Z,5.88
2023-04-22T21:52:12.367Z,5.57
2023-04-22T21:56:33.603Z,6.88
2023-04-22T22:00:51.626Z,5.78
2023-04-22T22:05:10.687Z,5.80
2023-04-22T22:09:31.769Z,6.43
2023-04-22T22:13:51.041Z,6.20
2023-04-22T22:18:10.368Z,6.33
2023-04-22T22:22:27.999Z,5.88
2023-04-22T22:26:46.030Z,6.15
2023-04-22T22:31:05.820Z,6.18
2023-04-22T22:35:27.715Z,6.10
2023-04-22T22:39:46.490Z,5.78
2023-04-22T22:44:04.525Z,5.53
2023-04-22T22:48:24.070Z,6.13
2023-04-22T22:52:43.599Z,5.78
2023-04-22T22:57:01.753Z,6.80
2023-04-22T23:01:19.846Z,6.67
2023-04-22T23:05:39.637Z,6.03
2023-04-22T23:09:59.004Z,6.10
2023-04-22T23:14:17.912Z,6.32
2023-04-22T23:18:37.396Z,5.57
2023-04-22T23:22:58.741Z,5.25
2023-04-22T23:27:17.989Z,5.22
2023-04-22T23:31:36.519Z,5.20
2023-04-22T23:35:58.021Z,4.80
2023-04-22T23:40:19.217Z,5.28
2023-04-22T23:44:39.006Z,5.37
2023-04-22T23:48:57.325Z,5.70
2023-04-22T23:53:14.750Z,5.57
2023-04-22T23:57:35.145Z,5.60
